Time;durP1;ratioP1;P1;durP2;ratioP2;P2;SDS_P1;SDS_P2;PMS_P1;PMS_P2;Temp;Humidity;BMP_temperature;BMP_pressure;BME280_temperature;BME280_humidity;BME280_pressure;Samples;Min_cycle;Max_cycle;Signal;HPM_P1;HPM_P2
2024/02/10 00:01:45;;;;;;;9.45;7.55;;;11.60;99.90;;;;;;4925334;29;20195;-89
2024/02/10 00:04:14;;;;;;;9.50;8.63;;;11.60;99.90;;;;;;4931883;29;20217;-90
2024/02/10 00:06:39;;;;;;;8.77;7.88;;;11.70;99.90;;;;;;4940022;29;20223;-89
2024/02/10 00:09:09;;;;;;;8.80;7.90;;;11.10;99.90;;;;;;4921084;29;20670;-88
2024/02/10 00:11:36;;;;;;;14.07;9.32;;;11.30;99.90;;;;;;4936048;29;20248;-90
2024/02/10 00:14:02;;;;;;;9.75;8.75;;;11.60;99.90;;;;;;4917341;29;20230;-89
2024/02/10 00:16:28;;;;;;;12.52;10.00;;;11.80;99.90;;;;;;4934183;29;20244;-89
2024/02/10 00:18:57;;;;;;;9.70;8.75;;;11.20;99.90;;;;;;4921144;29;20186;-89
2024/02/10 00:21:24;;;;;;;10.30;9.18;;;11.80;99.90;;;;;;4916088;29;20668;-89
2024/02/10 00:23:49;;;;;;;9.38;8.25;;;11.60;99.90;;;;;;4922234;29;20193;-89
2024/02/10 00:26:21;;;;;;;9.70;8.80;;;11.80;99.90;;;;;;4916485;29;20224;-89
2024/02/10 00:28:47;;;;;;;10.40;9.40;;;11.30;99.90;;;;;;4918865;29;20198;-89
2024/02/10 00:31:12;;;;;;;10.63;8.87;;;11.60;99.90;;;;;;4917692;29;20247;-89
2024/02/10 00:33:38;;;;;;;10.00;8.33;;;11.10;99.90;;;;;;4918626;29;20501;-90
2024/02/10 00:36:04;;;;;;;11.33;8.87;;;11.20;99.90;;;;;;4917095;29;20220;-90
2024/02/10 00:38:30;;;;;;;10.93;8.23;;;11.10;99.90;;;;;;4936804;29;20209;-89
2024/02/10 00:41:02;;;;;;;10.07;8.95;;;11.20;99.90;;;;;;4938195;28;20249;-89
2024/02/10 00:43:27;;;;;;;11.50;8.93;;;11.20;99.90;;;;;;4937596;28;20182;-90
2024/02/10 00:45:53;;;;;;;11.30;10.10;;;11.10;99.90;;;;;;4935375;29;20603;-90
2024/02/10 00:48:18;;;;;;;10.33;8.73;;;11.10;99.90;;;;;;4915832;29;20188;-90
2024/02/10 00:50:45;;;;;;;13.47;9.33;;;10.50;99.90;;;;;;4916989;29;20681;-89
2024/02/10 00:53:11;;;;;;;10.13;9.13;;;11.40;99.90;;;;;;4922469;29;20219;-90
2024/02/10 00:55:37;;;;;;;10.65;8.95;;;11.50;99.90;;;;;;4911401;29;20283;-90
2024/02/10 00:58:06;;;;;;;11.70;9.47;;;11.50;99.90;;;;;;4923569;29;20185;-89
2024/02/10 01:00:32;;;;;;;10.75;9.65;;;11.20;99.90;;;;;;4915837;29;20200;-89
2024/02/10 01:02:57;;;;;;;9.00;8.10;;;11.70;99.90;;;;;;4930283;29;20191;-89
2024/02/10 01:05:23;;;;;;;9.43;8.40;;;11.10;99.90;;;;;;4916291;29;20213;-90
2024/02/10 01:07:49;;;;;;;10.03;8.63;;;11.00;99.90;;;;;;4916624;29;21101;-90
2024/02/10 01:10:15;;;;;;;10.10;8.80;;;11.60;99.90;;;;;;4927662;29;20220;-90
2024/02/10 01:12:41;;;;;;;10.93;9.30;;;11.20;99.90;;;;;;4932076;29;20189;-90
2024/02/10 01:15:07;;;;;;;10.23;9.20;;;11.20;99.90;;;;;;4911068;29;20539;-90
2024/02/10 01:17:33;;;;;;;9.10;8.15;;;11.20;99.90;;;;;;4930192;29;20232;-89
2024/02/10 01:19:59;;;;;;;9.90;8.90;;;11.20;99.90;;;;;;4916662;29;20211;-90
2024/02/10 01:22:26;;;;;;;10.43;9.32;;;11.50;99.90;;;;;;4915523;29;20594;-89
2024/02/10 01:24:55;;;;;;;11.25;9.68;;;10.80;99.90;;;;;;4916912;29;20299;-89
2024/02/10 01:27:22;;;;;;;11.75;9.80;;;11.00;99.90;;;;;;4915889;29;20206;-90
2024/02/10 01:29:50;;;;;;;11.07;9.88;;;11.20;99.90;;;;;;4914320;29;20229;-90
2024/02/10 01:32:19;;;;;;;12.32;10.48;;;11.30;99.90;;;;;;4917405;29;20240;-90
2024/02/10 01:34:48;;;;;;;14.93;10.63;;;11.50;99.90;;;;;;4901253;29;20800;-90
2024/02/10 01:37:17;;;;;;;11.68;10.48;;;11.00;99.90;;;;;;4917442;29;20694;-89
2024/02/10 01:39:44;;;;;;;14.30;10.60;;;11.30;99.90;;;;;;4930143;28;20176;-90
2024/02/10 01:42:10;;;;;;;12.57;11.20;;;11.10;99.90;;;;;;4927774;29;20193;-90
2024/02/10 01:44:35;;;;;;;12.47;10.50;;;11.30;99.90;;;;;;4929991;29;20210;-90
2024/02/10 01:47:01;;;;;;;10.80;9.00;;;11.20;99.90;;;;;;4927204;29;20578;-90
2024/02/10 01:49:28;;;;;;;11.60;8.70;;;11.10;99.90;;;;;;4929188;29;20256;-90
2024/02/10 01:51:54;;;;;;;13.55;8.90;;;11.00;99.90;;;;;;4916569;29;20192;-90
2024/02/10 01:54:20;;;;;;;11.90;9.90;;;11.00;99.90;;;;;;4917365;29;20192;-90
2024/02/10 01:56:46;;;;;;;10.80;9.00;;;10.90;99.90;;;;;;4916997;29;20347;-90
2024/02/10 01:59:12;;;;;;;9.03;8.13;;;11.10;99.90;;;;;;4915481;29;20653;-89
2024/02/10 02:01:39;;;;;;;10.65;8.48;;;11.10;99.90;;;;;;4928169;28;20192;-89
2024/02/10 02:04:05;;;;;;;11.13;9.05;;;11.60;99.90;;;;;;4943209;28;20204;-89
2024/02/10 02:06:31;;;;;;;10.00;9.00;;;11.10;99.90;;;;;;4936185;28;20216;-88
2024/02/10 02:09:00;;;;;;;11.40;8.90;;;11.20;99.90;;;;;;4919461;29;20479;-88
2024/02/10 02:11:29;;;;;;;10.80;8.65;;;11.00;99.90;;;;;;4918387;29;20191;-88
2024/02/10 02:13:58;;;;;;;11.85;9.52;;;11.00;99.90;;;;;;4918135;29;20192;-89
2024/02/10 02:16:26;;;;;;;10.32;9.02;;;11.40;99.90;;;;;;4922407;29;20223;-89
2024/02/10 02:18:51;;;;;;;12.93;9.63;;;11.30;99.90;;;;;;4945947;29;20321;-89
2024/02/10 02:21:17;;;;;;;10.27;9.27;;;10.90;99.90;;;;;;4921771;29;20202;-89
2024/02/10 02:23:44;;;;;;;9.60;8.60;;;11.50;99.90;;;;;;4918254;29;20180;-89
2024/02/10 02:26:09;;;;;;;8.27;7.47;;;11.00;99.90;;;;;;4938669;29;20264;-89
2024/02/10 02:28:35;;;;;;;9.63;8.13;;;11.10;99.90;;;;;;4928172;29;20685;-89
2024/02/10 02:31:03;;;;;;;9.57;8.67;;;11.20;99.90;;;;;;4924683;29;20219;-89
2024/02/10 02:33:31;;;;;;;9.02;7.97;;;10.60;99.90;;;;;;4924486;29;20183;-89
2024/02/10 02:35:58;;;;;;;8.52;7.60;;;11.10;99.90;;;;;;4923966;29;20310;-88
2024/02/10 02:38:23;;;;;;;9.98;8.95;;;11.50;99.90;;;;;;4918749;29;20176;-88
2024/02/10 02:40:49;;;;;;;8.80;7.70;;;10.90;99.90;;;;;;4927342;29;20195;-89
2024/02/10 02:43:15;;;;;;;9.40;8.40;;;10.80;99.90;;;;;;4929092;29;20644;-89
2024/02/10 02:45:45;;;;;;;8.17;7.37;;;11.30;99.90;;;;;;4932745;29;20476;-88
2024/02/10 02:48:11;;;;;;;9.32;7.63;;;10.70;99.90;;;;;;4911122;29;20718;-89
2024/02/10 02:50:41;;;;;;;8.33;7.30;;;11.00;99.90;;;;;;4927128;29;20255;-88
2024/02/10 02:53:07;;;;;;;8.68;7.68;;;10.70;99.90;;;;;;4923621;29;20196;-89
2024/02/10 02:55:33;;;;;;;9.50;8.40;;;11.00;99.90;;;;;;4924243;29;20218;-89
2024/02/10 02:58:02;;;;;;;8.90;8.00;;;10.70;99.90;;;;;;4918924;29;20184;-89
2024/02/10 03:00:29;;;;;;;9.40;7.53;;;10.80;99.90;;;;;;4918377;29;20211;-89
2024/02/10 03:02:56;;;;;;;8.85;7.93;;;10.90;99.90;;;;;;4921718;29;20192;-89
2024/02/10 03:05:22;;;;;;;9.23;7.55;;;10.80;99.90;;;;;;4926794;29;20213;-89
2024/02/10 03:07:48;;;;;;;8.17;7.27;;;10.60;99.90;;;;;;4922882;29;20188;-89
2024/02/10 03:10:14;;;;;;;8.90;7.40;;;10.80;99.90;;;;;;4923145;29;20274;-89
2024/02/10 03:12:48;;;;;;;9.90;8.13;;;11.10;99.90;;;;;;4922433;29;20195;-89
2024/02/10 03:15:14;;;;;;;9.30;8.15;;;10.80;99.90;;;;;;4934730;29;20207;-89
2024/02/10 03:17:41;;;;;;;9.05;7.00;;;10.70;99.90;;;;;;4959772;28;20274;-89
2024/02/10 03:20:09;;;;;;;9.18;6.90;;;10.50;99.90;;;;;;4936628;29;20200;-89
2024/02/10 03:22:36;;;;;;;9.88;8.70;;;10.50;99.90;;;;;;4926363;29;20243;-89
2024/02/10 03:25:02;;;;;;;10.85;8.25;;;10.70;99.90;;;;;;4924781;29;20313;-89
2024/02/10 03:27:27;;;;;;;9.83;7.97;;;10.50;99.90;;;;;;4921469;29;20204;-89
2024/02/10 03:29:53;;;;;;;8.53;7.33;;;10.60;99.90;;;;;;4927680;29;20465;-90
2024/02/10 03:32:18;;;;;;;10.53;7.47;;;10.70;99.90;;;;;;4925161;29;20533;-89
2024/02/10 03:34:44;;;;;;;7.63;6.83;;;10.90;99.90;;;;;;4938440;29;20203;-89
2024/02/10 03:37:12;;;;;;;9.57;8.20;;;11.00;99.90;;;;;;4931770;29;20208;-89
2024/02/10 03:39:39;;;;;;;11.05;7.90;;;10.80;99.90;;;;;;4936094;28;20199;-89
2024/02/10 03:42:05;;;;;;;10.10;7.88;;;10.40;99.90;;;;;;4940966;28;20203;-89
2024/02/10 03:44:31;;;;;;;10.23;8.65;;;10.30;99.90;;;;;;4927663;29;20200;-89
2024/02/10 03:47:00;;;;;;;9.70;8.23;;;10.60;99.90;;;;;;4943198;28;20197;-89
2024/02/10 03:49:27;;;;;;;9.00;8.10;;;11.00;99.90;;;;;;4944116;28;20171;-89
2024/02/10 03:51:53;;;;;;;8.43;7.57;;;10.70;99.90;;;;;;4952374;28;20175;-90
2024/02/10 03:54:18;;;;;;;10.27;9.17;;;11.90;99.90;;;;;;4942970;28;20178;-90
2024/02/10 03:56:46;;;;;;;9.90;8.10;;;10.30;99.90;;;;;;4925991;28;20241;-90
2024/02/10 03:59:13;;;;;;;9.25;7.70;;;10.50;99.90;;;;;;4944510;29;20183;-89
2024/02/10 04:01:42;;;;;;;8.88;7.93;;;10.40;99.90;;;;;;4935425;29;20276;-90
2024/02/10 04:04:08;;;;;;;10.68;9.57;;;10.20;99.90;;;;;;4927801;29;20212;-90
2024/02/10 04:06:33;;;;;;;9.97;8.93;;;10.20;99.90;;;;;;4923613;29;20706;-89
2024/02/10 04:09:05;;;;;;;13.10;10.60;;;10.70;99.90;;;;;;4925629;29;20190;-88
2024/02/10 04:11:31;;;;;;;10.70;9.25;;;10.70;99.90;;;;;;4917019;29;20288;-88
2024/02/10 04:13:58;;;;;;;15.97;9.30;;;10.10;99.90;;;;;;4917750;29;20195;-88
2024/02/10 04:16:24;;;;;;;13.48;11.20;;;10.70;99.90;;;;;;4921356;29;20222;-89
2024/02/10 04:18:51;;;;;;;17.40;12.37;;;10.80;99.90;;;;;;4924842;29;20560;-89
2024/02/10 04:21:16;;;;;;;13.82;11.57;;;10.30;99.90;;;;;;4916822;29;20426;-89
2024/02/10 04:23:42;;;;;;;14.30;12.73;;;10.30;99.90;;;;;;4918108;29;20740;-89
2024/02/10 04:26:07;;;;;;;14.60;12.50;;;10.80;99.90;;;;;;4935817;29;20206;-89
2024/02/10 04:28:33;;;;;;;13.17;11.70;;;10.80;99.90;;;;;;4927126;29;20697;-89
2024/02/10 04:30:59;;;;;;;13.17;11.80;;;10.50;99.90;;;;;;4940632;29;20194;-89
2024/02/10 04:33:24;;;;;;;14.60;12.10;;;10.50;99.90;;;;;;4928122;29;20444;-89
2024/02/10 04:35:50;;;;;;;14.20;12.00;;;10.60;99.90;;;;;;4944393;28;20257;-89
2024/02/10 04:38:16;;;;;;;14.43;12.07;;;10.10;99.90;;;;;;4947314;28;20199;-89
2024/02/10 04:40:42;;;;;;;15.30;11.90;;;10.40;99.90;;;;;;4943843;28;20171;-89
2024/02/10 04:43:07;;;;;;;14.83;11.63;;;10.30;99.90;;;;;;4930814;29;20183;-89
2024/02/10 04:45:34;;;;;;;14.20;11.97;;;10.80;99.90;;;;;;4930661;29;20217;-89
2024/02/10 04:48:08;;;;;;;16.90;13.55;;;10.10;99.90;;;;;;4927861;29;20276;-89
2024/02/10 04:50:34;;;;;;;14.23;11.95;;;10.40;99.90;;;;;;4934312;29;20202;-89
2024/02/10 04:53:00;;;;;;;16.00;12.93;;;10.50;99.90;;;;;;4937141;29;20187;-89
2024/02/10 04:55:26;;;;;;;16.92;13.15;;;10.20;99.90;;;;;;4927550;29;20470;-89
2024/02/10 04:57:53;;;;;;;15.60;13.57;;;10.00;99.90;;;;;;4927148;29;20245;-89
2024/02/10 05:00:20;;;;;;;16.10;12.88;;;10.60;99.90;;;;;;4923543;29;20190;-89
2024/02/10 05:02:47;;;;;;;15.68;12.90;;;10.20;99.90;;;;;;4925950;29;20184;-89
2024/02/10 05:05:14;;;;;;;18.80;13.05;;;10.00;99.90;;;;;;4937906;28;20207;-90
2024/02/10 05:07:45;;;;;;;16.90;13.40;;;10.10;99.90;;;;;;4938973;28;20187;-89
2024/02/10 05:10:14;;;;;;;19.15;14.98;;;10.50;99.90;;;;;;4939460;28;20203;-88
2024/02/10 05:12:49;;;;;;;17.52;13.63;;;10.40;99.90;;;;;;4941121;28;20230;-88
2024/02/10 05:15:18;;;;;;;18.02;13.95;;;10.10;99.90;;;;;;4937471;28;20221;-89
2024/02/10 05:17:50;;;;;;;17.88;13.10;;;10.10;99.90;;;;;;4957787;28;20250;-88
2024/02/10 05:20:20;;;;;;;15.73;12.20;;;10.20;99.90;;;;;;4945413;28;20202;-88
2024/02/10 05:22:50;;;;;;;16.25;12.75;;;9.60;99.90;;;;;;4943367;28;20194;-88
2024/02/10 05:25:20;;;;;;;15.98;13.35;;;10.20;99.90;;;;;;4945801;28;20215;-89
2024/02/10 05:27:47;;;;;;;18.23;13.60;;;10.10;99.90;;;;;;4942696;28;20190;-89
2024/02/10 05:30:21;;;;;;;15.65;12.60;;;10.10;99.90;;;;;;4942072;29;20186;-89
2024/02/10 05:32:51;;;;;;;17.25;13.60;;;10.30;99.90;;;;;;4945419;28;20202;-89
2024/02/10 05:35:20;;;;;;;18.52;14.63;;;10.30;99.90;;;;;;4944212;28;20206;-89
2024/02/10 05:37:48;;;;;;;18.88;13.10;;;10.40;99.90;;;;;;4943893;28;20181;-88
2024/02/10 05:40:14;;;;;;;17.13;15.32;;;10.10;99.90;;;;;;4944820;28;20187;-89
2024/02/10 05:42:44;;;;;;;19.33;14.45;;;10.10;99.90;;;;;;4945173;28;20186;-89
2024/02/10 05:45:11;;;;;;;16.13;13.55;;;9.90;99.90;;;;;;4945129;29;20222;-88
2024/02/10 05:47:39;;;;;;;17.45;13.40;;;9.90;99.90;;;;;;4945774;29;20194;-89
2024/02/10 05:50:08;;;;;;;18.05;13.77;;;10.50;99.90;;;;;;4926639;29;20295;-89
2024/02/10 05:52:38;;;;;;;17.85;12.98;;;10.10;99.90;;;;;;4932803;29;20670;-89
2024/02/10 05:55:04;;;;;;;17.67;14.90;;;10.30;99.90;;;;;;4922261;29;20206;-89
2024/02/10 05:57:30;;;;;;;18.87;14.63;;;10.00;99.90;;;;;;4920381;29;20688;-89
2024/02/10 05:59:55;;;;;;;19.37;14.70;;;10.00;99.90;;;;;;4921803;29;20420;-89
2024/02/10 06:02:21;;;;;;;17.33;13.80;;;9.80;99.90;;;;;;4921985;29;20195;-89
2024/02/10 06:04:53;;;;;;;18.77;14.20;;;9.90;99.90;;;;;;4940469;29;20210;-88
2024/02/10 06:07:18;;;;;;;18.27;13.98;;;10.30;99.90;;;;;;4944196;29;20442;-88
2024/02/10 06:09:44;;;;;;;17.80;14.83;;;10.10;99.90;;;;;;4940258;29;20206;-88
2024/02/10 06:12:10;;;;;;;17.42;13.93;;;9.90;99.90;;;;;;4945009;29;20198;-88
2024/02/10 06:14:37;;;;;;;20.57;15.77;;;9.60;99.90;;;;;;4935581;28;20241;-88
2024/02/10 06:17:03;;;;;;;17.85;13.60;;;10.00;99.90;;;;;;4950064;29;20201;-88
2024/02/10 06:19:29;;;;;;;19.58;15.88;;;9.80;99.90;;;;;;4937947;29;20182;-89
2024/02/10 06:21:54;;;;;;;20.57;14.70;;;9.30;99.90;;;;;;4928757;29;20703;-88
2024/02/10 06:24:20;;;;;;;21.93;16.50;;;9.80;99.90;;;;;;4928710;29;20289;-88
2024/02/10 06:26:48;;;;;;;18.63;15.20;;;9.80;99.90;;;;;;4928404;29;20210;-88
2024/02/10 06:29:15;;;;;;;19.70;15.93;;;9.60;99.90;;;;;;4924595;29;20501;-88
2024/02/10 06:31:42;;;;;;;20.40;16.23;;;9.80;99.90;;;;;;4924628;29;20191;-88
2024/02/10 06:34:08;;;;;;;20.20;15.70;;;9.70;99.90;;;;;;4930275;29;20187;-88
2024/02/10 06:36:34;;;;;;;19.70;15.90;;;9.90;99.90;;;;;;4921369;29;20217;-88
2024/02/10 06:39:00;;;;;;;22.97;17.77;;;9.80;99.90;;;;;;4935138;29;20663;-88
2024/02/10 06:41:30;;;;;;;20.60;15.90;;;9.70;99.90;;;;;;4937915;29;20200;-88
2024/02/10 06:43:55;;;;;;;19.77;16.38;;;9.90;99.90;;;;;;4924892;29;20897;-88
2024/02/10 06:46:21;;;;;;;19.93;15.50;;;9.90;99.90;;;;;;4929865;29;20240;-88
2024/02/10 06:48:48;;;;;;;17.73;14.30;;;9.90;99.90;;;;;;4924156;29;20664;-88
2024/02/10 06:51:13;;;;;;;20.65;15.73;;;10.00;99.90;;;;;;4919406;29;20180;-88
2024/02/10 06:53:39;;;;;;;20.57;14.90;;;10.40;99.90;;;;;;4921225;29;20203;-88
2024/02/10 06:56:05;;;;;;;18.23;14.60;;;10.40;99.90;;;;;;4923149;29;20304;-88
2024/02/10 06:58:30;;;;;;;18.07;13.60;;;10.00;99.90;;;;;;4920889;29;20192;-89
2024/02/10 07:00:58;;;;;;;17.80;13.53;;;10.00;99.90;;;;;;4925852;29;20194;-89
2024/02/10 07:03:23;;;;;;;18.95;14.50;;;10.50;99.90;;;;;;4926127;29;20559;-90
2024/02/10 07:05:49;;;;;;;18.87;13.63;;;10.50;99.90;;;;;;4928892;29;20213;-89
2024/02/10 07:08:16;;;;;;;20.15;15.27;;;10.10;99.90;;;;;;4942146;28;21562;-90
2024/02/10 07:10:45;;;;;;;21.50;15.57;;;10.30;99.90;;;;;;4946990;28;20253;-89
2024/02/10 07:13:10;;;;;;;18.40;15.05;;;10.30;99.90;;;;;;4934017;29;20231;-89
2024/02/10 07:15:36;;;;;;;20.00;15.30;;;9.90;99.90;;;;;;4921810;29;20303;-89
2024/02/10 07:18:02;;;;;;;19.27;15.07;;;10.40;99.90;;;;;;4927919;29;20196;-88
2024/02/10 07:20:31;;;;;;;17.33;14.47;;;10.30;99.90;;;;;;4926974;29;20568;-89
2024/02/10 07:23:00;;;;;;;19.00;15.77;;;10.20;99.90;;;;;;4921097;29;20491;-90
2024/02/10 07:25:27;;;;;;;20.10;15.10;;;10.10;99.90;;;;;;4924551;29;20207;-89
2024/02/10 07:27:53;;;;;;;22.30;15.10;;;10.70;99.90;;;;;;4926896;29;20199;-90
2024/02/10 07:30:20;;;;;;;18.60;16.08;;;10.60;99.90;;;;;;4921514;29;20178;-90
2024/02/10 07:32:49;;;;;;;23.50;18.35;;;10.50;99.90;;;;;;4919206;29;20185;-88
2024/02/10 07:35:22;;;;;;;24.90;18.05;;;10.60;99.90;;;;;;4927111;29;20206;-93
2024/02/10 07:37:48;;;;;;;26.02;18.83;;;10.80;99.90;;;;;;4897813;29;21066;-90
2024/02/10 07:40:13;;;;;;;20.20;15.90;;;10.30;99.90;;;;;;4940049;28;20234;-90
2024/02/10 07:42:39;;;;;;;20.00;15.27;;;10.40;99.90;;;;;;4932134;28;20182;-91
2024/02/10 07:45:05;;;;;;;21.13;15.07;;;10.50;99.90;;;;;;4925417;29;20216;-89
2024/02/10 07:47:31;;;;;;;21.65;16.70;;;10.70;99.90;;;;;;4929956;29;20486;-91
2024/02/10 07:49:58;;;;;;;20.83;16.43;;;11.20;99.90;;;;;;4919714;29;20234;-91
2024/02/10 07:52:31;;;;;;;21.63;16.20;;;10.90;99.90;;;;;;4933334;29;20193;-91
2024/02/10 07:54:57;;;;;;;18.60;15.68;;;10.80;99.90;;;;;;4921692;29;20680;-91
2024/02/10 07:57:23;;;;;;;18.67;14.97;;;10.80;99.90;;;;;;4920971;29;20224;-91
2024/02/10 07:59:54;;;;;;;20.25;16.85;;;10.00;99.90;;;;;;4921762;29;20191;-91
2024/02/10 08:02:25;;;;;;;18.38;14.52;;;10.80;99.90;;;;;;4918861;29;20189;-91
2024/02/10 08:04:53;;;;;;;19.20;15.20;;;11.00;99.90;;;;;;4917855;29;20218;-91
2024/02/10 08:07:19;;;;;;;21.27;16.15;;;10.60;99.90;;;;;;4902583;29;20189;-91
2024/02/10 08:09:45;;;;;;;22.50;15.90;;;10.60;99.90;;;;;;4917479;29;20197;-90
2024/02/10 08:12:15;;;;;;;20.23;15.70;;;10.70;99.90;;;;;;4919738;29;20641;-90
2024/02/10 08:14:42;;;;;;;21.58;16.58;;;10.70;99.90;;;;;;4916916;29;20191;-90
2024/02/10 08:17:08;;;;;;;20.65;16.48;;;10.60;99.90;;;;;;4916582;29;20230;-91
2024/02/10 08:19:35;;;;;;;18.83;15.63;;;11.10;99.90;;;;;;4919182;29;20777;-89
2024/02/10 08:22:07;;;;;;;20.23;17.63;;;10.80;99.90;;;;;;4935778;29;20189;-90
2024/02/10 08:24:38;;;;;;;19.50;15.43;;;10.70;99.90;;;;;;4933597;28;20195;-90
2024/02/10 08:27:06;;;;;;;20.50;16.15;;;10.60;99.90;;;;;;4934850;29;20210;-90
2024/02/10 08:29:35;;;;;;;20.25;16.23;;;10.70;99.90;;;;;;4917895;29;20247;-89
2024/02/10 08:32:04;;;;;;;18.60;15.05;;;10.50;99.90;;;;;;4918145;29;20265;-90
2024/02/10 08:34:31;;;;;;;18.95;16.08;;;10.60;99.90;;;;;;4917900;29;20227;-91
2024/02/10 08:36:58;;;;;;;21.27;16.40;;;10.60;99.90;;;;;;4918596;29;20221;-90
2024/02/10 08:39:23;;;;;;;19.58;16.25;;;10.50;99.90;;;;;;4941423;28;20178;-90
2024/02/10 08:41:50;;;;;;;21.37;16.33;;;10.50;99.90;;;;;;4938878;28;20177;-91
2024/02/10 08:44:16;;;;;;;21.08;16.15;;;10.50;99.90;;;;;;4946515;28;20259;-90
2024/02/10 08:46:42;;;;;;;20.70;15.53;;;10.00;99.90;;;;;;4918862;29;20668;-90
2024/02/10 08:49:14;;;;;;;20.38;16.13;;;10.60;99.90;;;;;;4938608;29;20539;-91
2024/02/10 08:51:42;;;;;;;21.95;15.75;;;10.70;99.90;;;;;;4918417;29;20260;-91
2024/02/10 08:54:10;;;;;;;22.23;16.75;;;10.60;99.90;;;;;;4922191;29;20199;-90
2024/02/10 08:56:41;;;;;;;22.27;17.20;;;11.20;99.90;;;;;;4919418;29;20221;-90
2024/02/10 08:59:09;;;;;;;20.80;17.13;;;10.70;99.90;;;;;;4918467;29;20203;-90
2024/02/10 09:01:37;;;;;;;20.52;16.85;;;11.00;99.90;;;;;;4916137;29;20190;-90
2024/02/10 09:04:03;;;;;;;22.58;17.52;;;10.10;99.90;;;;;;4916637;29;20198;-91
2024/02/10 09:06:28;;;;;;;22.90;17.33;;;10.40;99.90;;;;;;4916233;29;20216;-91
2024/02/10 09:08:54;;;;;;;21.40;17.17;;;11.20;99.90;;;;;;4917593;29;20969;-91
2024/02/10 09:11:20;;;;;;;23.70;16.90;;;11.00;99.90;;;;;;4937659;29;20216;-91
2024/02/10 09:13:48;;;;;;;19.90;16.03;;;10.90;99.90;;;;;;4918862;29;20195;-91
2024/02/10 09:16:13;;;;;;;23.20;17.23;;;11.00;99.90;;;;;;4930387;29;20217;-91
2024/02/10 09:18:42;;;;;;;28.80;21.67;;;10.80;99.90;;;;;;4922412;28;20172;-91
2024/02/10 09:21:09;;;;;;;19.65;16.10;;;10.60;99.90;;;;;;4939231;28;20486;-91
2024/02/10 09:23:35;;;;;;;25.58;18.02;;;10.80;99.90;;;;;;4937819;29;20176;-90
2024/02/10 09:26:01;;;;;;;24.03;17.70;;;10.90;99.90;;;;;;4923636;29;20287;-91
2024/02/10 09:28:29;;;;;;;21.60;16.67;;;10.90;99.90;;;;;;4923476;29;20657;-91
2024/02/10 09:30:58;;;;;;;22.92;18.27;;;11.30;99.90;;;;;;4946853;29;20532;-90
2024/02/10 09:33:26;;;;;;;23.13;18.45;;;11.10;99.90;;;;;;4930608;29;20203;-91
2024/02/10 09:35:52;;;;;;;26.40;20.30;;;11.50;99.90;;;;;;4923896;29;20228;-91
2024/02/10 09:38:22;;;;;;;23.27;17.83;;;10.90;99.90;;;;;;4934045;28;20250;-90
2024/02/10 09:40:47;;;;;;;22.27;18.02;;;11.60;99.90;;;;;;4937028;28;20197;-87
2024/02/10 09:43:15;;;;;;;23.40;18.47;;;11.10;99.90;;;;;;4929318;29;20221;-88
2024/02/10 09:45:45;;;;;;;23.45;17.25;;;11.20;99.90;;;;;;4933078;29;20278;-87
2024/02/10 09:48:18;;;;;;;20.50;16.65;;;10.90;99.90;;;;;;4925345;29;20211;-88
2024/02/10 09:50:44;;;;;;;21.65;17.30;;;10.80;99.90;;;;;;4920145;29;20198;-88
2024/02/10 09:53:10;;;;;;;19.50;15.83;;;11.50;99.90;;;;;;4922158;29;20214;-87
2024/02/10 09:55:35;;;;;;;18.50;15.80;;;10.80;99.90;;;;;;4920240;29;20627;-89
2024/02/10 09:58:04;;;;;;;19.43;15.47;;;13.20;99.90;;;;;;4930853;29;20194;-89
2024/02/10 10:00:31;;;;;;;18.27;14.32;;;12.00;99.90;;;;;;4953602;28;20211;-89
2024/02/10 10:02:59;;;;;;;21.20;15.70;;;11.20;99.90;;;;;;4939646;28;20170;-89
2024/02/10 10:05:29;;;;;;;16.42;14.68;;;11.90;99.90;;;;;;4922622;29;20211;-89
2024/02/10 10:07:55;;;;;;;17.80;15.43;;;11.60;99.90;;;;;;4916852;29;20282;-90
2024/02/10 10:10:21;;;;;;;19.98;15.07;;;11.50;99.90;;;;;;4936234;29;20196;-90
2024/02/10 10:12:49;;;;;;;19.48;15.48;;;11.40;99.90;;;;;;4923107;29;20226;-90
2024/02/10 10:15:14;;;;;;;19.08;14.63;;;11.60;99.90;;;;;;4918765;29;20773;-90
2024/02/10 10:17:42;;;;;;;18.67;14.50;;;11.40;99.90;;;;;;4926403;29;20376;-90
2024/02/10 10:20:12;;;;;;;19.98;16.27;;;11.10;99.90;;;;;;4951260;28;20181;-89
2024/02/10 10:22:38;;;;;;;18.95;16.25;;;11.50;99.90;;;;;;4938858;29;20232;-90
2024/02/10 10:28:10;;;;;;;18.73;15.50;;;10.30;99.90;;;;;;4966291;23;20614;-87
2024/02/10 10:31:37;;;;;;;;;;;;;;;;;;;;;
2024/02/10 10:34:20;;;;;;;;;;;;;;;;;;;;;
2024/02/10 10:40:40;;;;;;;;;;;;;;;;;;;;;
2024/02/10 10:43:20;;;;;;;;;;;;;;;;;;;;;
2024/02/10 10:46:05;;;;;;;;;;;;;;;;;;;;;
2024/02/10 10:53:08;;;;;;;;;;;;;;;;;;;;;
2024/02/10 10:56:15;;;;;;;;;;;;;;;;;;;;;
2024/02/10 11:16:52;;;;;;;;;;;;;;;;;;;;;
2024/02/10 11:19:53;;;;;;;22.13;18.52;;;12.00;99.90;;;;;;4940745;28;20560;-88
2024/02/10 11:23:26;;;;;;;;;;;;;;;;;;;;;
2024/02/10 11:28:51;;;;;;;;;;;;;;;;;;;;;
2024/02/10 11:42:14;;;;;;;;;;;;;;;;;;;;;
2024/02/10 11:51:07;;;;;;;22.40;16.45;;;12.90;99.90;;;;;;4947131;28;20212;-88
2024/02/10 11:53:32;;;;;;;22.08;16.60;;;12.30;99.90;;;;;;4929886;28;20205;-89
2024/02/10 11:56:29;;;;;;;;;;;;;;;;;;;;;
2024/02/10 11:58:59;;;;;;;22.55;18.70;;;12.40;99.90;;;;;;4932597;29;20674;-90
2024/02/10 12:01:51;;;;;;;25.42;20.83;;;11.90;99.90;;;;;;4932192;28;20185;-89
2024/02/10 12:05:12;;;;;;;;;;;;;;;;;;;;;
2024/02/10 12:07:59;;;;;;;24.42;18.15;;;13.80;99.90;;;;;;4951552;28;20216;-87
2024/02/10 12:10:25;;;;;;;21.33;18.67;;;12.30;99.90;;;;;;4929030;28;20606;-88
2024/02/10 12:12:56;;;;;;;26.15;20.17;;;12.40;99.90;;;;;;4932294;28;20203;-88
2024/02/10 12:15:26;;;;;;;22.63;18.25;;;14.00;99.90;;;;;;4934682;28;20952;-88
2024/02/10 12:18:12;;;;;;;20.20;17.10;;;13.10;99.90;;;;;;4937833;28;20692;-88
2024/02/10 12:21:01;;;;;;;22.60;18.77;;;13.00;99.90;;;;;;4930465;28;20814;-88
2024/02/10 12:23:37;;;;;;;20.55;17.38;;;12.80;99.90;;;;;;4947134;28;20232;-89
2024/02/10 12:26:35;;;;;;;;;;;;;;;;;;;;;
2024/02/10 12:29:10;;;;;;;21.08;16.85;;;13.10;99.90;;;;;;4947785;28;20196;-89
2024/02/10 12:31:39;;;;;;;21.75;16.73;;;12.00;99.90;;;;;;4932382;28;20780;-89
2024/02/10 12:34:15;;;;;;;21.50;17.10;;;13.60;99.90;;;;;;4931543;28;20688;-88
2024/02/10 12:36:45;;;;;;;18.92;16.52;;;13.10;99.90;;;;;;4927786;28;20229;-89
2024/02/10 12:39:22;;;;;;;20.85;17.38;;;12.40;99.90;;;;;;4934250;28;20185;-88
2024/02/10 12:42:23;;;;;;;21.58;17.45;;;14.80;99.90;;;;;;4935723;28;20658;-88
2024/02/10 12:44:49;;;;;;;20.00;17.52;;;11.50;99.90;;;;;;4935282;28;20291;-81
2024/02/10 12:47:15;;;;;;;21.27;17.67;;;11.40;99.90;;;;;;4934853;28;20697;-81
2024/02/10 12:49:43;;;;;;;20.43;16.93;;;;;;;;;;4943234;28;20211;-91
2024/02/10 12:52:09;;;;;;;20.75;16.13;;;12.70;99.90;;;;;;4949799;28;20452;-92
2024/02/10 12:54:35;;;;;;;18.02;15.68;;;12.70;99.90;;;;;;4951250;28;20200;-92
2024/02/10 12:57:00;;;;;;;20.10;16.43;;;12.00;99.90;;;;;;4950746;29;20217;-91
2024/02/10 12:59:26;;;;;;;16.90;15.10;;;14.70;99.90;;;;;;4946788;28;20177;-91
2024/02/10 13:01:51;;;;;;;17.00;15.20;;;13.50;99.90;;;;;;4940934;28;21556;-92
2024/02/10 13:04:20;;;;;;;17.30;14.47;;;13.90;99.90;;;;;;4945641;28;20203;-92
2024/02/10 13:06:47;;;;;;;19.88;15.90;;;13.50;99.90;;;;;;4933777;28;20344;-92
2024/02/10 13:09:12;;;;;;;17.70;14.15;;;12.20;99.90;;;;;;4939185;28;20255;-91
2024/02/10 13:11:38;;;;;;;18.77;15.50;;;13.50;99.90;;;;;;4940766;28;20216;-92
2024/02/10 13:14:05;;;;;;;19.03;15.47;;;14.40;99.90;;;;;;4937861;28;20196;-92
2024/02/10 13:16:31;;;;;;;17.67;13.73;;;12.90;99.90;;;;;;4945511;28;20310;-92
2024/02/10 13:18:58;;;;;;;19.30;14.80;;;14.00;99.90;;;;;;4938609;28;20215;-92
2024/02/10 13:21:25;;;;;;;15.68;13.98;;;13.10;99.90;;;;;;4951386;28;20180;-91
2024/02/10 13:23:51;;;;;;;15.60;14.00;;;16.00;99.90;;;;;;4937151;28;20192;-91
2024/02/10 13:26:18;;;;;;;16.07;14.10;;;14.90;99.90;;;;;;4935894;28;20291;-92
2024/02/10 13:28:45;;;;;;;15.57;13.55;;;14.90;99.90;;;;;;4934533;28;20273;-92
2024/02/10 13:31:11;;;;;;;15.48;13.20;;;13.10;99.90;;;;;;4936626;28;20655;-91
2024/02/10 13:33:39;;;;;;;14.40;12.90;;;15.90;99.90;;;;;;4931981;28;20299;-90
2024/02/10 13:36:07;;;;;;;16.42;13.75;;;14.20;99.90;;;;;;4934358;28;20523;-91
2024/02/10 14:00:29;;;;;;;16.45;13.65;;;13.70;99.90;;;;;;4968844;28;20217;-93
2024/02/10 14:03:04;;;;;;;14.10;12.70;;;13.10;99.90;;;;;;4961017;28;20316;-93
2024/02/10 14:11:00;;;;;;;14.57;11.73;;;13.20;99.90;;;;;;4972921;28;20182;-93
2024/02/10 14:13:30;;;;;;;15.10;12.60;;;12.50;99.90;;;;;;4946851;28;20202;-92